Terminal Aerodrome Forecast
Issued by NWS

Home | Current Version | Previous Version | Text Only | Print | Product List | Glossary Off
Versions: 1 2 3 4 5 6 7 8 9 10 11 12 13 14

000
FTUS43 KBIS 151100
TAFDIK
TAF
KDIK 151123Z 1512/1612 15015KT P6SM BKN080
     FM151500 16019G28KT P6SM BKN080
     FM160000 13014KT P6SM VCSH BKN050 OVC070
     FM160300 06012KT 5SM -RASN SCT020 OVC030
     FM160900 02015KT 3SM -SN OVC015=

USA.gov is the U.S. government's official web portal to all federal, state and local government web resources and services.